Time;durP1;ratioP1;P1;durP2;ratioP2;P2;SDS_P1;SDS_P2;PMS_P1;PMS_P2;Temp;Humidity;BMP_temperature;BMP_pressure;BME280_temperature;BME280_humidity;BME280_pressure;Samples;Min_cycle;Max_cycle;Signal;HPM_P1;HPM_P2
2022/02/06 00:01:09;;;;;;;5.00;2.60;;;9.80;48.10;;;;;;5006453;28;20194;-45
2022/02/06 00:03:35;;;;;;;6.37;2.40;;;9.80;48.00;;;;;;5005989;28;20235;-45
2022/02/06 00:06:01;;;;;;;4.13;1.40;;;9.90;48.20;;;;;;5011972;28;20444;-46
2022/02/06 00:08:27;;;;;;;5.30;1.80;;;9.80;48.00;;;;;;5003401;28;20199;-45
2022/02/06 00:10:53;;;;;;;4.83;2.17;;;9.80;48.20;;;;;;5001693;28;20449;-46
2022/02/06 00:13:18;;;;;;;2.80;1.90;;;9.90;48.20;;;;;;5006899;28;20237;-45
2022/02/06 00:15:44;;;;;;;4.57;1.90;;;9.80;48.20;;;;;;5007867;28;20190;-46
2022/02/06 00:18:09;;;;;;;4.77;1.63;;;9.80;48.20;;;;;;5007860;28;20216;-49
2022/02/06 00:20:46;;;;;;;9.17;2.13;;;9.80;48.20;;;;;;5004531;28;20186;-45
2022/02/06 00:23:13;;;;;;;1.90;1.53;;;9.70;48.20;;;;;;5011364;28;20246;-45
2022/02/06 00:33:25;;;;;;;1.90;1.67;;;9.40;48.90;;;;;;5005375;28;20473;-44
2022/02/06 00:41:22;;;;;;;4.90;1.93;;;9.40;49.10;;;;;;5011464;28;20823;-45
2022/02/06 00:43:48;;;;;;;3.40;1.80;;;9.40;49.60;;;;;;5006780;28;20202;-44
2022/02/06 00:46:16;;;;;;;3.10;2.00;;;9.40;49.10;;;;;;5002773;28;20459;-45
2022/02/06 00:48:46;;;;;;;5.10;2.10;;;9.40;49.10;;;;;;5004154;28;20445;-45
2022/02/06 00:51:28;;;;;;;5.57;2.40;;;9.50;49.00;;;;;;5005749;28;20444;-45
2022/02/06 00:53:53;;;;;;;3.00;1.60;;;9.60;48.90;;;;;;5004697;28;20441;-45
2022/02/06 00:56:19;;;;;;;4.80;2.40;;;9.60;48.80;;;;;;5007114;28;21245;-44
2022/02/06 00:58:45;;;;;;;3.87;1.70;;;9.60;48.90;;;;;;5006951;28;20321;-45
2022/02/06 01:01:10;;;;;;;4.77;1.77;;;9.60;49.00;;;;;;5001475;28;20213;-44
2022/02/06 01:03:36;;;;;;;2.70;1.63;;;9.40;49.10;;;;;;5003768;28;20497;-45
2022/02/06 01:06:04;;;;;;;5.57;2.27;;;9.20;49.60;;;;;;5005407;28;20611;-44
2022/02/06 01:08:29;;;;;;;5.77;2.80;;;9.20;50.10;;;;;;5006778;28;21097;-45
2022/02/06 01:10:55;;;;;;;3.50;1.63;;;9.10;50.10;;;;;;5003369;28;20438;-45
2022/02/06 01:13:27;;;;;;;6.37;2.00;;;9.20;50.00;;;;;;5004737;28;20201;-45
2022/02/06 01:16:09;;;;;;;2.43;1.60;;;9.20;50.20;;;;;;5002721;28;20193;-45
2022/02/06 01:18:49;;;;;;;4.00;2.00;;;9.20;50.10;;;;;;4998512;28;20510;-45
2022/02/06 01:21:30;;;;;;;2.17;1.43;;;9.20;50.10;;;;;;5000214;28;20551;-45
2022/02/06 01:24:02;;;;;;;1.93;1.73;;;9.00;50.40;;;;;;5006202;28;20471;-45
2022/02/06 01:26:45;;;;;;;2.27;1.33;;;9.00;50.50;;;;;;5005092;28;20440;-44
2022/02/06 01:29:26;;;;;;;4.63;1.83;;;9.00;50.60;;;;;;5001372;28;20953;-46
2022/02/06 01:32:01;;;;;;;5.33;2.63;;;9.10;50.50;;;;;;5009601;28;20452;-46
2022/02/06 01:34:42;;;;;;;4.53;1.73;;;9.20;50.30;;;;;;5004060;28;20464;-45
2022/02/06 01:37:30;;;;;;;4.13;1.60;;;9.20;50.20;;;;;;5008371;28;20444;-45
2022/02/06 01:42:45;;;;;;;3.73;1.60;;;9.10;50.10;;;;;;5006224;28;20591;-46
2022/02/06 02:12:39;;;;;;;3.50;1.50;;;9.40;49.90;;;;;;5005909;28;20479;-45
2022/02/06 02:31:04;;;;;;;4.53;1.73;;;9.60;49.90;;;;;;5008867;28;20957;-46
2022/02/06 02:42:53;;;;;;;2.57;1.60;;;9.70;49.80;;;;;;5003015;28;20491;-49
2022/02/06 02:47:21;;;;;;;2.53;1.30;;;9.50;50.40;;;;;;5009450;28;20519;-45
2022/02/06 02:49:57;;;;;;;2.60;1.20;;;9.40;50.10;;;;;;5008358;28;20988;-46
2022/02/06 02:55:03;;;;;;;5.60;1.47;;;9.30;50.40;;;;;;5005491;28;20781;-44
2022/02/06 02:57:41;;;;;;;3.70;1.37;;;9.20;50.70;;;;;;5005788;28;20456;-44
2022/02/06 03:02:59;;;;;;;4.87;1.30;;;9.10;51.30;;;;;;5016237;28;20966;-44
2022/02/06 03:05:26;;;;;;;2.20;1.20;;;9.00;51.30;;;;;;5018145;28;20463;-45
2022/02/06 03:07:52;;;;;;;1.70;1.47;;;8.90;51.60;;;;;;5014993;28;20461;-44
2022/02/06 03:10:18;;;;;;;1.10;1.00;;;8.90;51.60;;;;;;5005128;28;20484;-45
2022/02/06 03:12:49;;;;;;;2.40;1.23;;;8.70;51.80;;;;;;5012967;28;20491;-45
2022/02/06 03:15:31;;;;;;;5.33;1.47;;;8.70;51.90;;;;;;5014154;28;20224;-45
2022/02/06 03:18:01;;;;;;;4.73;1.60;;;8.80;51.90;;;;;;5025378;28;20441;-45
2022/02/06 03:20:28;;;;;;;1.60;1.10;;;8.90;51.70;;;;;;5013825;28;20433;-44
2022/02/06 03:22:55;;;;;;;4.50;1.47;;;8.80;51.60;;;;;;5013364;28;20559;-45
2022/02/06 03:25:22;;;;;;;3.30;1.60;;;8.90;51.80;;;;;;5013539;28;20497;-45
2022/02/06 03:27:51;;;;;;;4.93;1.33;;;8.90;51.70;;;;;;5012849;28;20436;-45
2022/02/06 03:30:18;;;;;;;5.10;1.27;;;8.90;51.80;;;;;;5012603;28;20444;-45
2022/02/06 03:32:44;;;;;;;5.00;1.40;;;8.90;51.70;;;;;;5012256;28;20443;-44
2022/02/06 03:35:10;;;;;;;4.67;1.50;;;8.90;51.60;;;;;;5014086;28;20636;-48
2022/02/06 03:37:35;;;;;;;1.73;1.30;;;8.90;51.60;;;;;;5012507;28;20531;-45
2022/02/06 03:40:05;;;;;;;2.97;1.40;;;8.80;51.60;;;;;;5013688;28;20194;-44
2022/02/06 03:42:36;;;;;;;4.30;1.80;;;8.70;51.80;;;;;;5011981;28;20698;-45
2022/02/06 03:45:06;;;;;;;6.00;1.53;;;8.70;51.90;;;;;;5012835;28;20498;-45
2022/02/06 03:47:54;;;;;;;4.33;1.50;;;8.90;51.90;;;;;;5012121;28;20804;-44
2022/02/06 03:50:20;;;;;;;4.10;1.37;;;8.80;51.90;;;;;;5013150;28;20524;-44
2022/02/06 03:52:51;;;;;;;1.00;0.90;;;8.80;51.70;;;;;;5012741;28;20575;-44
2022/02/06 03:55:19;;;;;;;4.03;1.40;;;8.90;51.80;;;;;;5012300;28;20201;-44
2022/02/06 03:57:50;;;;;;;7.70;1.20;;;9.00;51.60;;;;;;5009423;28;20433;-46
2022/02/06 04:00:16;;;;;;;5.60;1.60;;;9.10;51.40;;;;;;5006187;28;20566;-44
2022/02/06 04:02:42;;;;;;;1.27;1.00;;;9.20;51.30;;;;;;5005039;28;20534;-45
2022/02/06 04:05:09;;;;;;;1.70;1.20;;;9.20;51.20;;;;;;5006508;28;20936;-44
2022/02/06 04:07:35;;;;;;;3.07;1.40;;;9.20;51.40;;;;;;5002768;28;20453;-45
2022/02/06 04:10:00;;;;;;;5.00;1.57;;;9.10;51.30;;;;;;5006461;28;20810;-45
2022/02/06 04:12:27;;;;;;;2.03;1.33;;;9.10;51.60;;;;;;5010323;28;20208;-45
2022/02/06 04:14:56;;;;;;;3.17;1.40;;;9.10;51.60;;;;;;5001695;28;20198;-44
2022/02/06 04:17:25;;;;;;;3.50;1.17;;;9.20;51.50;;;;;;5005239;28;20441;-44
2022/02/06 04:19:51;;;;;;;5.07;1.70;;;9.40;51.30;;;;;;5011068;28;20440;-45
2022/02/06 04:22:17;;;;;;;6.50;1.50;;;9.50;50.90;;;;;;5007071;28;20577;-45
2022/02/06 04:24:43;;;;;;;2.40;1.33;;;9.50;50.70;;;;;;5001407;28;20452;-44
2022/02/06 04:27:09;;;;;;;2.30;1.00;;;9.40;50.80;;;;;;5003220;28;20449;-44
2022/02/06 04:29:35;;;;;;;3.47;1.37;;;9.40;51.00;;;;;;5006976;28;20268;-45
2022/02/06 04:32:02;;;;;;;6.30;1.97;;;9.40;50.90;;;;;;5004264;28;20281;-44
2022/02/06 04:34:29;;;;;;;2.70;1.70;;;9.40;51.00;;;;;;5000685;28;20206;-45
2022/02/06 04:37:03;;;;;;;2.37;1.20;;;9.40;51.10;;;;;;5000081;28;20810;-44
2022/02/06 04:45:05;;;;;;;2.97;1.30;;;9.10;51.40;;;;;;5009915;28;20441;-44
2022/02/06 05:28:06;;;;;;;2.40;1.13;;;8.70;52.60;;;;;;5001982;28;20494;-44
2022/02/06 05:30:44;;;;;;;6.40;1.87;;;8.90;52.80;;;;;;5003553;28;20190;-45
2022/02/06 05:33:09;;;;;;;3.13;1.20;;;8.90;52.50;;;;;;5006167;28;20445;-45
2022/02/06 05:35:36;;;;;;;1.93;1.00;;;8.80;52.80;;;;;;5010062;28;20440;-44
2022/02/06 05:38:02;;;;;;;1.67;1.40;;;8.70;53.00;;;;;;5010449;28;20226;-44
2022/02/06 05:40:28;;;;;;;5.27;1.40;;;8.90;53.10;;;;;;5010612;28;20437;-45
2022/02/06 05:42:53;;;;;;;4.30;1.80;;;8.70;53.10;;;;;;5005108;28;20499;-44
2022/02/06 05:45:20;;;;;;;5.37;1.40;;;8.90;53.10;;;;;;5009466;28;20197;-46
2022/02/06 05:47:46;;;;;;;3.23;1.40;;;9.00;52.70;;;;;;5004734;28;20193;-45
2022/02/06 05:50:14;;;;;;;2.40;1.20;;;9.10;52.40;;;;;;5004371;28;20453;-46
2022/02/06 05:52:39;;;;;;;5.03;1.40;;;9.10;52.20;;;;;;5009706;28;20531;-46
2022/02/06 05:55:07;;;;;;;7.13;2.83;;;9.10;52.30;;;;;;5005881;28;20548;-45
2022/02/06 05:57:33;;;;;;;2.03;1.30;;;9.10;52.20;;;;;;4999591;28;20206;-44
2022/02/06 05:59:59;;;;;;;4.47;1.63;;;9.00;52.30;;;;;;5004152;28;20440;-45
2022/02/06 06:02:25;;;;;;;4.33;1.80;;;8.90;52.50;;;;;;4999311;28;20503;-45
2022/02/06 06:04:50;;;;;;;4.47;1.23;;;8.80;52.80;;;;;;5004751;28;20195;-44
2022/02/06 06:07:16;;;;;;;3.40;1.40;;;8.90;52.90;;;;;;5003086;28;20282;-45
2022/02/06 06:09:41;;;;;;;4.30;1.33;;;8.90;52.70;;;;;;5003801;28;20728;-45
2022/02/06 06:12:08;;;;;;;3.77;1.40;;;8.80;52.80;;;;;;4999983;28;20245;-45
2022/02/06 06:14:34;;;;;;;2.40;1.37;;;8.60;53.10;;;;;;5003013;28;20256;-45
2022/02/06 06:16:59;;;;;;;3.63;1.80;;;8.70;53.40;;;;;;5004556;28;20471;-44
2022/02/06 06:19:25;;;;;;;3.17;1.53;;;8.60;53.50;;;;;;5006781;28;20928;-45
2022/02/06 06:21:55;;;;;;;2.90;1.73;;;8.70;53.40;;;;;;5005599;28;20190;-44
2022/02/06 06:24:25;;;;;;;5.40;1.13;;;8.80;53.40;;;;;;5009272;28;20445;-45
2022/02/06 06:26:51;;;;;;;3.80;1.43;;;8.60;53.30;;;;;;5005286;28;20456;-45
2022/02/06 06:29:17;;;;;;;3.57;1.47;;;8.40;53.60;;;;;;5007200;28;20453;-45
2022/02/06 06:31:43;;;;;;;2.57;1.07;;;8.40;54.10;;;;;;5007809;28;20775;-45
2022/02/06 06:34:09;;;;;;;8.40;1.70;;;8.50;54.10;;;;;;5002934;28;20714;-45
2022/02/06 06:36:36;;;;;;;3.77;1.63;;;8.50;53.80;;;;;;5012147;28;20433;-45
2022/02/06 06:39:06;;;;;;;6.93;1.77;;;8.40;53.80;;;;;;5005889;28;20225;-45
2022/02/06 06:41:31;;;;;;;3.30;1.17;;;8.50;54.10;;;;;;5003191;28;20441;-45
2022/02/06 06:43:57;;;;;;;4.77;1.23;;;8.40;54.00;;;;;;5007643;28;20531;-45
2022/02/06 06:46:23;;;;;;;4.17;1.70;;;8.40;54.10;;;;;;5012490;28;20202;-44
2022/02/06 06:48:49;;;;;;;4.50;2.00;;;8.30;54.30;;;;;;5011305;28;20452;-45
2022/02/06 06:51:14;;;;;;;5.00;1.30;;;8.30;54.70;;;;;;5005131;28;20202;-45
2022/02/06 06:53:44;;;;;;;5.27;1.87;;;8.50;54.30;;;;;;5007210;28;20247;-45
2022/02/06 06:56:15;;;;;;;2.70;1.70;;;8.40;54.10;;;;;;5004529;28;20650;-44
2022/02/06 06:58:46;;;;;;;2.53;1.17;;;8.40;54.40;;;;;;5011467;28;20452;-44
2022/02/06 07:01:43;;;;;;;2.13;1.17;;;8.40;54.10;;;;;;5012199;28;20437;-46
2022/02/06 07:04:06;;;;;;;2.60;2.07;;;8.50;54.30;;;;;;5007783;28;20535;-45
2022/02/06 07:06:31;;;;;;;4.00;1.40;;;8.40;54.20;;;;;;5006592;28;20529;-46
2022/02/06 07:08:57;;;;;;;3.47;1.70;;;8.30;54.30;;;;;;5007248;28;20240;-44
2022/02/06 07:11:22;;;;;;;3.43;1.40;;;8.40;54.50;;;;;;5009956;28;20205;-45
2022/02/06 07:13:48;;;;;;;2.90;1.10;;;8.40;54.40;;;;;;5007671;28;20248;-44
2022/02/06 07:16:13;;;;;;;3.00;1.00;;;8.50;54.10;;;;;;5012859;28;20206;-45
2022/02/06 07:18:39;;;;;;;3.63;2.07;;;8.30;54.00;;;;;;5013924;28;20238;-45
2022/02/06 07:21:05;;;;;;;7.00;1.23;;;8.30;54.10;;;;;;5019653;28;20186;-44
2022/02/06 07:23:30;;;;;;;3.50;1.20;;;8.30;54.10;;;;;;5010798;28;20257;-45
2022/02/06 07:26:01;;;;;;;1.50;1.07;;;8.00;54.40;;;;;;5011514;28;20281;-45
2022/02/06 07:28:29;;;;;;;3.60;1.37;;;8.20;54.80;;;;;;5013228;28;20587;-45
2022/02/06 07:30:54;;;;;;;4.50;1.17;;;8.40;54.20;;;;;;5014365;28;20464;-45
2022/02/06 07:33:21;;;;;;;2.23;1.00;;;8.20;54.30;;;;;;5014634;28;20801;-44
2022/02/06 07:35:48;;;;;;;3.70;1.20;;;8.20;54.50;;;;;;5010429;28;20269;-44
2022/02/06 07:38:14;;;;;;;3.27;1.17;;;8.20;54.50;;;;;;5003795;28;20433;-44
2022/02/06 07:40:41;;;;;;;4.70;1.30;;;8.20;54.60;;;;;;5012843;28;20962;-46
2022/02/06 07:43:07;;;;;;;3.57;1.70;;;8.10;54.50;;;;;;5010543;28;20492;-44
2022/02/06 07:45:36;;;;;;;2.20;1.50;;;8.40;54.40;;;;;;5016418;28;20443;-46
2022/02/06 07:48:04;;;;;;;4.03;1.40;;;8.20;54.30;;;;;;5014173;28;20433;-45
2022/02/06 07:50:29;;;;;;;4.13;1.33;;;8.10;54.60;;;;;;5019899;28;20431;-44
2022/02/06 07:52:55;;;;;;;4.23;2.23;;;8.20;55.00;;;;;;5005802;28;20441;-45
2022/02/06 07:55:21;;;;;;;5.67;2.00;;;8.30;54.70;;;;;;5011837;28;20206;-45
2022/02/06 07:57:47;;;;;;;2.00;1.23;;;8.40;54.60;;;;;;5002109;28;20198;-45
2022/02/06 08:00:13;;;;;;;6.00;1.20;;;8.60;54.50;;;;;;5007356;28;21350;-46
2022/02/06 08:02:40;;;;;;;1.60;1.30;;;8.70;54.30;;;;;;5014190;28;20257;-44
2022/02/06 08:05:06;;;;;;;5.27;1.70;;;8.70;54.00;;;;;;5019116;28;20429;-44
2022/02/06 08:07:32;;;;;;;1.80;1.17;;;8.70;54.20;;;;;;5018519;28;20493;-44
2022/02/06 08:10:00;;;;;;;3.03;1.20;;;8.60;54.10;;;;;;5017357;28;20492;-43
2022/02/06 08:12:44;;;;;;;2.83;1.10;;;8.80;54.20;;;;;;5013126;28;20468;-44
2022/02/06 08:15:10;;;;;;;2.90;1.20;;;9.00;53.90;;;;;;5016968;28;20538;-44
2022/02/06 08:17:39;;;;;;;3.20;1.90;;;8.90;53.80;;;;;;5011069;28;20568;-44
2022/02/06 08:20:08;;;;;;;2.33;1.23;;;8.90;53.80;;;;;;5008077;28;20198;-46
2022/02/06 08:22:34;;;;;;;2.90;1.40;;;8.80;53.80;;;;;;5013699;28;20500;-45
2022/02/06 08:25:00;;;;;;;5.70;1.43;;;8.60;54.10;;;;;;5015898;28;20940;-44
2022/02/06 08:27:27;;;;;;;3.20;1.40;;;8.80;54.20;;;;;;5021464;28;20649;-44
2022/02/06 08:29:53;;;;;;;3.70;1.57;;;9.00;54.10;;;;;;5007561;28;20449;-44
2022/02/06 08:32:21;;;;;;;1.33;1.00;;;8.80;54.00;;;;;;5012983;28;20444;-44
2022/02/06 08:34:49;;;;;;;2.43;1.60;;;8.90;54.10;;;;;;5008962;28;20433;-43
2022/02/06 08:37:14;;;;;;;2.80;1.10;;;8.90;54.10;;;;;;5007400;28;20429;-45
2022/02/06 08:39:41;;;;;;;3.87;1.83;;;9.00;54.00;;;;;;5005756;28;20445;-44
2022/02/06 08:42:09;;;;;;;2.57;1.17;;;8.90;54.10;;;;;;5004181;28;20230;-45
2022/02/06 08:44:40;;;;;;;3.43;1.70;;;9.10;54.10;;;;;;5015158;28;20511;-44
2022/02/06 08:47:08;;;;;;;4.03;1.43;;;9.00;53.60;;;;;;5009629;28;20433;-45
2022/02/06 08:49:36;;;;;;;4.90;1.30;;;9.00;53.80;;;;;;5012064;28;20524;-44
2022/02/06 08:52:02;;;;;;;4.30;1.60;;;9.10;53.70;;;;;;5006985;28;21270;-44
2022/02/06 08:54:31;;;;;;;4.90;1.60;;;9.30;53.50;;;;;;5010439;28;20441;-44
2022/02/06 08:57:02;;;;;;;2.67;1.70;;;9.40;53.00;;;;;;5009941;28;20437;-44
2022/02/06 08:59:30;;;;;;;3.37;1.43;;;9.10;53.00;;;;;;5010848;28;20449;-44
2022/02/06 09:01:59;;;;;;;2.40;1.30;;;9.00;53.40;;;;;;5004582;28;20445;-45
2022/02/06 09:04:26;;;;;;;4.50;1.60;;;8.90;53.30;;;;;;5005995;28;20448;-44
2022/02/06 09:06:53;;;;;;;6.10;2.03;;;8.90;53.80;;;;;;5010546;28;20960;-44
2022/02/06 09:09:19;;;;;;;2.97;1.37;;;9.10;53.80;;;;;;5006463;28;20560;-44
2022/02/06 09:11:45;;;;;;;3.00;1.50;;;9.20;53.60;;;;;;5008083;28;20871;-45
2022/02/06 09:14:13;;;;;;;4.30;1.43;;;9.30;53.40;;;;;;5011678;28;20680;-45
2022/02/06 09:16:39;;;;;;;2.73;1.17;;;9.30;53.20;;;;;;5010532;28;21011;-44
2022/02/06 09:19:06;;;;;;;3.10;2.10;;;9.20;53.20;;;;;;5010107;28;20528;-45
2022/02/06 09:21:32;;;;;;;4.13;1.27;;;9.30;53.20;;;;;;5011386;28;20592;-44
2022/02/06 09:23:58;;;;;;;3.60;1.00;;;9.30;53.20;;;;;;5010409;28;20576;-47
2022/02/06 09:26:24;;;;;;;2.43;1.40;;;9.30;53.10;;;;;;5010704;28;20692;-44
2022/02/06 09:28:50;;;;;;;5.47;1.57;;;9.30;53.20;;;;;;5008809;28;20225;-45
2022/02/06 09:31:22;;;;;;;5.13;1.60;;;9.40;53.10;;;;;;5004117;28;20430;-46
2022/02/06 09:36:13;;;;;;;2.90;1.13;;;9.70;53.00;;;;;;5003289;28;20793;-47
2022/02/06 09:38:39;;;;;;;4.33;1.40;;;9.90;52.60;;;;;;4999213;28;20193;-44
2022/02/06 09:41:05;;;;;;;4.67;2.23;;;9.80;52.50;;;;;;5008641;28;20205;-45
2022/02/06 09:43:32;;;;;;;3.30;1.43;;;9.50;52.50;;;;;;5010059;28;20237;-47
2022/02/06 09:46:01;;;;;;;7.93;1.63;;;9.70;52.90;;;;;;5002291;28;20194;-44
2022/02/06 09:48:29;;;;;;;4.47;1.20;;;9.60;53.10;;;;;;5007396;28;20572;-48
2022/02/06 09:50:56;;;;;;;2.30;1.03;;;9.60;53.20;;;;;;5007236;28;20811;-47
2022/02/06 09:53:22;;;;;;;12.50;1.60;;;9.70;53.00;;;;;;5002730;28;20448;-44
2022/02/06 09:55:48;;;;;;;5.20;1.40;;;9.60;53.10;;;;;;5002869;28;20440;-44
2022/02/06 10:00:42;;;;;;;3.90;2.00;;;9.60;53.20;;;;;;5001315;28;21050;-44
2022/02/06 10:03:12;;;;;;;5.57;1.40;;;9.70;53.30;;;;;;5007215;28;20484;-44
2022/02/06 10:05:45;;;;;;;6.00;2.40;;;9.70;53.30;;;;;;5001762;28;20537;-45
2022/02/06 10:08:14;;;;;;;1.70;1.57;;;9.90;53.20;;;;;;5008772;28;20441;-45
2022/02/06 10:10:55;;;;;;;2.67;1.63;;;9.50;53.10;;;;;;5010693;28;20470;-45
2022/02/06 10:13:20;;;;;;;2.93;1.30;;;9.40;53.80;;;;;;4999907;28;20444;-45
2022/02/06 10:15:46;;;;;;;8.47;1.37;;;9.70;53.80;;;;;;5006812;28;20921;-44
2022/02/06 10:18:12;;;;;;;3.10;1.30;;;9.80;53.50;;;;;;5006582;28;21044;-45
2022/02/06 10:20:46;;;;;;;2.10;1.20;;;10.00;52.60;;;;;;5010554;28;20206;-45
2022/02/06 10:23:33;;;;;;;4.67;1.50;;;10.00;52.30;;;;;;5009064;28;20221;-45
2022/02/06 10:26:08;;;;;;;1.80;1.30;;;10.00;52.50;;;;;;5011374;28;20928;-47
2022/02/06 10:31:06;;;;;;;3.57;0.90;;;9.80;53.30;;;;;;5010072;28;20561;-45
2022/02/06 10:33:51;;;;;;;1.43;0.93;;;9.80;53.50;;;;;;5004713;28;20960;-45
2022/02/06 10:36:27;;;;;;;3.37;1.03;;;9.70;53.50;;;;;;5003019;28;20448;-46
2022/02/06 10:39:11;;;;;;;12.17;8.70;;;9.70;53.70;;;;;;5006985;28;20486;-46
2022/02/06 10:41:55;;;;;;;3.80;2.80;;;9.50;53.70;;;;;;5011905;28;20509;-45
2022/02/06 10:44:29;;;;;;;7.30;1.47;;;9.70;54.60;;;;;;5015785;28;20455;-45
2022/02/06 10:46:56;;;;;;;3.00;1.60;;;9.80;53.80;;;;;;5012170;28;20522;-44
2022/02/06 10:49:23;;;;;;;2.53;1.17;;;9.70;53.80;;;;;;5007088;28;20821;-44
2022/02/06 10:51:51;;;;;;;1.70;1.43;;;9.90;53.80;;;;;;5015343;28;20451;-44
2022/02/06 10:54:40;;;;;;;3.77;1.83;;;9.90;53.80;;;;;;5010474;28;20487;-44
2022/02/06 10:57:11;;;;;;;2.07;1.40;;;10.00;52.70;;;;;;5008760;28;20452;-44
2022/02/06 10:59:43;;;;;;;7.03;1.40;;;10.10;52.80;;;;;;5011664;28;20455;-43
2022/02/06 11:02:31;;;;;;;5.17;1.20;;;10.20;52.30;;;;;;5007985;28;20476;-45
2022/02/06 11:05:02;;;;;;;2.40;1.20;;;10.10;52.40;;;;;;5007942;28;20555;-45
2022/02/06 11:07:28;;;;;;;2.50;2.17;;;10.10;52.70;;;;;;5006050;28;20462;-46
2022/02/06 11:10:06;;;;;;;2.87;1.20;;;10.20;52.70;;;;;;5012088;28;20472;-46
2022/02/06 11:12:33;;;;;;;2.27;1.07;;;10.50;52.50;;;;;;5005554;28;20430;-46
2022/02/06 11:15:02;;;;;;;3.57;1.40;;;10.30;52.30;;;;;;5012014;28;20479;-46
2022/02/06 11:17:30;;;;;;;2.00;1.37;;;10.30;52.70;;;;;;5013095;28;20441;-43
2022/02/06 11:20:06;;;;;;;3.07;1.30;;;10.10;52.70;;;;;;5010354;28;20512;-46
2022/02/06 11:22:32;;;;;;;2.83;1.03;;;9.90;53.70;;;;;;5007773;28;20530;-45
2022/02/06 11:24:59;;;;;;;3.50;1.50;;;9.80;54.10;;;;;;5012121;28;20874;-45
2022/02/06 11:27:27;;;;;;;1.67;1.27;;;9.90;54.30;;;;;;5006705;28;20436;-45
2022/02/06 11:29:54;;;;;;;1.63;1.00;;;10.10;53.30;;;;;;5012787;28;20439;-45
2022/02/06 11:32:20;;;;;;;2.43;1.07;;;10.20;53.20;;;;;;5010041;28;20500;-45
2022/02/06 11:34:45;;;;;;;2.83;1.10;;;10.20;52.90;;;;;;5010053;28;20465;-44
2022/02/06 11:46:27;;;;;;;2.93;1.23;;;10.30;53.20;;;;;;4999100;28;20515;-45
2022/02/06 11:49:04;;;;;;;2.43;1.10;;;10.00;53.00;;;;;;5008765;28;20512;-45
2022/02/06 11:51:30;;;;;;;4.00;1.10;;;9.80;53.90;;;;;;5013487;28;20432;-45
2022/02/06 11:53:56;;;;;;;1.30;1.10;;;9.90;54.50;;;;;;5012172;28;20491;-46
2022/02/06 11:56:38;;;;;;;4.63;1.63;;;10.00;53.60;;;;;;5011098;28;20300;-45
2022/02/06 11:59:10;;;;;;;4.50;1.30;;;10.10;53.60;;;;;;5005030;28;20612;-45
2022/02/06 12:01:36;;;;;;;3.37;1.50;;;10.40;53.50;;;;;;5009951;28;20441;-45
2022/02/06 12:04:05;;;;;;;3.37;1.10;;;10.40;53.10;;;;;;5004494;28;20481;-46
2022/02/06 12:06:36;;;;;;;2.47;1.20;;;10.50;53.00;;;;;;5010957;28;20441;-44
2022/02/06 12:09:02;;;;;;;1.80;1.30;;;10.30;53.10;;;;;;5010934;28;20560;-43
2022/02/06 12:11:29;;;;;;;4.20;1.10;;;10.30;53.40;;;;;;5008296;28;20443;-42
2022/02/06 12:14:21;;;;;;;2.03;1.17;;;10.30;53.20;;;;;;5008608;28;20194;-44
2022/02/06 12:20:11;;;;;;;5.37;1.23;;;10.60;53.10;;;;;;5005908;28;20449;-43
2022/02/06 12:22:40;;;;;;;2.70;1.53;;;10.60;53.10;;;;;;5000705;28;20562;-43
2022/02/06 12:25:28;;;;;;;2.00;1.00;;;10.50;52.80;;;;;;5011462;28;20437;-43
2022/02/06 12:28:20;;;;;;;3.37;1.17;;;10.40;53.10;;;;;;5000167;28;20487;-43
2022/02/06 12:30:47;;;;;;;5.20;1.60;;;10.30;53.10;;;;;;5009444;28;20452;-43
2022/02/06 12:38:37;;;;;;;1.50;1.00;;;10.10;53.60;;;;;;5003179;28;20467;-44
2022/02/06 12:41:28;;;;;;;1.90;1.00;;;10.30;53.70;;;;;;5008517;28;21157;-43
2022/02/06 12:43:57;;;;;;;1.50;1.40;;;10.50;53.30;;;;;;5005640;28;20234;-43
2022/02/06 12:46:25;;;;;;;2.30;1.03;;;10.40;53.10;;;;;;5009874;28;20487;-43
2022/02/06 12:48:51;;;;;;;1.00;0.90;;;10.40;53.40;;;;;;5006312;28;20457;-43
2022/02/06 12:51:25;;;;;;;3.20;1.10;;;10.60;53.40;;;;;;5000970;28;20455;-43
2022/02/06 12:54:10;;;;;;;3.07;1.00;;;10.40;53.00;;;;;;5010683;28;20457;-43
2022/02/06 12:56:40;;;;;;;1.73;1.10;;;10.40;53.70;;;;;;5008724;28;20794;-44
2022/02/06 12:59:07;;;;;;;3.00;1.20;;;10.40;52.80;;;;;;5007314;28;20437;-44
2022/02/06 13:01:39;;;;;;;1.93;1.50;;;10.60;52.90;;;;;;5010606;28;21069;-43
2022/02/06 13:04:08;;;;;;;2.40;1.80;;;10.60;52.80;;;;;;5004403;28;20484;-44
2022/02/06 13:06:36;;;;;;;1.90;1.17;;;10.60;53.00;;;;;;5006144;28;20447;-44
2022/02/06 13:09:06;;;;;;;1.47;1.10;;;10.90;53.00;;;;;;5005686;28;20888;-44
2022/02/06 13:11:42;;;;;;;1.73;1.63;;;11.10;52.60;;;;;;5008636;28;20901;-43
2022/02/06 13:14:34;;;;;;;2.33;1.80;;;11.00;52.00;;;;;;5009645;28;21346;-43
2022/02/06 13:17:13;;;;;;;0.90;0.70;;;11.00;52.10;;;;;;5005849;28;20433;-44
2022/02/06 13:25:38;;;;;;;0.80;0.80;;;10.60;53.30;;;;;;5011807;28;20435;-44
2022/02/06 13:28:16;;;;;;;0.97;0.90;;;10.20;53.50;;;;;;5010456;28;20447;-43
2022/02/06 13:38:53;;;;;;;1.50;1.00;;;10.50;54.20;;;;;;5002647;28;20947;-43
2022/02/06 13:41:24;;;;;;;0.97;0.90;;;10.60;54.10;;;;;;5008040;28;20488;-45
2022/02/06 13:43:52;;;;;;;1.17;0.90;;;10.70;54.20;;;;;;5006697;28;20894;-43
2022/02/06 13:46:25;;;;;;;1.73;0.80;;;10.30;54.30;;;;;;5009451;28;20432;-45
2022/02/06 13:48:52;;;;;;;2.17;1.00;;;10.10;55.00;;;;;;5008475;28;20443;-43
2022/02/06 13:51:33;;;;;;;1.00;0.80;;;10.20;56.00;;;;;;5009090;28;20822;-44
2022/02/06 13:54:04;;;;;;;1.00;0.90;;;10.40;56.10;;;;;;5015184;28;20520;-43
2022/02/06 13:56:32;;;;;;;1.73;0.93;;;10.20;55.90;;;;;;5014355;28;20459;-44
2022/02/06 13:59:12;;;;;;;1.20;0.97;;;10.20;56.50;;;;;;5013925;28;20473;-44
2022/02/06 14:01:55;;;;;;;1.00;0.90;;;10.20;56.60;;;;;;5016277;28;20451;-44
2022/02/06 14:04:34;;;;;;;0.80;0.80;;;10.20;57.10;;;;;;5012457;28;20441;-44
2022/02/06 14:07:13;;;;;;;1.27;0.80;;;9.90;58.50;;;;;;5014485;28;20542;-44
2022/02/06 14:12:20;;;;;;;1.43;0.90;;;9.70;60.50;;;;;;5009553;28;20445;-44
2022/02/06 14:15:02;;;;;;;1.00;0.70;;;9.70;60.00;;;;;;5007677;28;20436;-44
2022/02/06 14:17:29;;;;;;;2.63;1.53;;;9.80;60.00;;;;;;5015437;28;20559;-45
2022/02/06 14:19:58;;;;;;;1.50;0.60;;;9.50;59.90;;;;;;5015324;28;20454;-44
2022/02/06 14:22:35;;;;;;;0.70;0.70;;;9.50;61.10;;;;;;5014967;28;20476;-44
2022/02/06 14:25:00;;;;;;;1.50;1.40;;;9.60;61.20;;;;;;5011571;28;20449;-44
2022/02/06 14:27:39;;;;;;;0.90;0.80;;;9.70;61.50;;;;;;5013846;28;20445;-45
2022/02/06 14:30:15;;;;;;;0.80;0.80;;;9.90;61.30;;;;;;5014836;28;20197;-44
2022/02/06 14:33:13;;;;;;;1.00;1.00;;;9.60;61.50;;;;;;5008669;28;21005;-44
2022/02/06 14:35:58;;;;;;;4.07;0.83;;;9.50;62.70;;;;;;5014565;28;20488;-44
2022/02/06 14:38:55;;;;;;;0.90;0.70;;;9.50;62.30;;;;;;5011368;28;20440;-45
2022/02/06 14:43:59;;;;;;;3.57;1.00;;;9.50;62.80;;;;;;5000821;28;20492;-44
2022/02/06 14:46:26;;;;;;;1.67;1.00;;;9.50;63.00;;;;;;5011929;28;21052;-44
2022/02/06 14:48:52;;;;;;;1.37;0.90;;;9.40;63.40;;;;;;5009669;28;20437;-44
2022/02/06 14:51:19;;;;;;;1.13;0.97;;;9.20;64.20;;;;;;5013283;28;20440;-44
2022/02/06 14:53:45;;;;;;;1.00;0.90;;;9.20;64.20;;;;;;5012545;28;20190;-44
2022/02/06 14:56:12;;;;;;;1.23;0.87;;;9.10;63.80;;;;;;5009381;28;20455;-45
2022/02/06 14:58:39;;;;;;;3.53;0.70;;;8.90;64.20;;;;;;5005307;28;20209;-45
2022/02/06 15:01:05;;;;;;;2.17;1.70;;;9.00;65.00;;;;;;5011339;28;20516;-46
2022/02/06 15:03:30;;;;;;;2.17;1.70;;;9.10;64.80;;;;;;5010950;28;20488;-44
2022/02/06 15:05:56;;;;;;;2.13;0.90;;;9.10;65.00;;;;;;5012149;28;20654;-45
2022/02/06 15:08:22;;;;;;;0.60;0.60;;;9.30;64.60;;;;;;5012255;28;20190;-48
2022/02/06 15:10:50;;;;;;;0.53;0.53;;;9.00;64.40;;;;;;5011626;28;20233;-45
2022/02/06 15:13:15;;;;;;;0.80;0.80;;;8.80;65.30;;;;;;5005970;28;20191;-48
2022/02/06 15:15:46;;;;;;;2.20;1.20;;;8.80;65.90;;;;;;5009892;28;20810;-46
2022/02/06 15:18:24;;;;;;;1.50;1.03;;;8.90;66.90;;;;;;5015120;28;20285;-49
2022/02/06 15:20:55;;;;;;;1.57;0.93;;;8.90;66.40;;;;;;5009695;28;20546;-46
2022/02/06 15:23:24;;;;;;;1.93;0.57;;;9.10;67.00;;;;;;5010690;28;20496;-48
2022/02/06 15:25:51;;;;;;;1.10;0.80;;;9.00;66.30;;;;;;5009355;28;20437;-48
2022/02/06 15:28:17;;;;;;;3.57;1.27;;;9.00;66.80;;;;;;5009629;28;20437;-45
2022/02/06 15:30:43;;;;;;;0.63;0.63;;;8.90;67.20;;;;;;5010033;28;20812;-45
2022/02/06 15:33:09;;;;;;;1.10;1.00;;;8.90;67.50;;;;;;5010003;28;20437;-46
2022/02/06 15:35:36;;;;;;;0.70;0.70;;;8.90;67.70;;;;;;5013518;28;20194;-50
2022/02/06 15:38:04;;;;;;;0.80;0.60;;;8.70;67.30;;;;;;5009389;28;20546;-49
2022/02/06 15:40:34;;;;;;;0.97;0.70;;;8.90;67.60;;;;;;5016350;28;20428;-49
2022/02/06 15:43:00;;;;;;;1.13;0.80;;;8.80;67.20;;;;;;5009965;28;20980;-47
2022/02/06 15:45:27;;;;;;;1.13;0.90;;;8.70;67.70;;;;;;5013082;28;20436;-46
2022/02/06 15:47:53;;;;;;;1.20;1.10;;;8.80;68.30;;;;;;5010860;28;20449;-47
2022/02/06 15:50:19;;;;;;;0.90;0.90;;;9.00;68.30;;;;;;5011828;28;20792;-49
2022/02/06 15:52:44;;;;;;;0.73;0.73;;;8.80;67.50;;;;;;5015823;28;20424;-48
2022/02/06 15:55:11;;;;;;;3.10;1.83;;;8.80;67.40;;;;;;5013773;28;20198;-49